Thunderstorms From: 15-12-2017 06:00 Until: 16-12-2017 06:00 warning for: Thunderstorms Level: Yellow info button

Although rather usual in this region, locally or potentially dangerous phenomena are expected. (such as local winds, summer thunderstorms, rising streams or high waves) Be aware and pay attention to the latest weather updates, especially if you carry out activities exposed to weather or close to a stream or shoreline. 


Meteo18 Weather Cam more information Meteo18 Weather Cam


warning for Thunderstorms more information blitzortung!


Rain radar more information rain snow radar


Visit our other weather sites:

Template documentation
and downloads

And another site



Weather Underground History page Text

Daily Summary for September 1, 2016 Units:  Metric    English   Both
« Previous Day
Next Day »
Daily Weekly Monthly Yearly Custom
  High: Low: Average:
Temperature: 28.7 °C 14.3 °C 21.8 °C
Dew Point: 14.6 °C 11.2 °C 12.3 °C
Humidity: 83 % 36 % 58 %
Wind Speed: 22.5 km/h 0.0 km/h 2.6 km/h
Wind Gust: 29.0 km/h - -
Wind:- - SSE
Pressure: 1023.6 hPa 1020.9 hPa -
Precipitation: 0.0 mm    
Historical Graphs
 
 
Tabular Data for September 1, 2016
Time Temperature Dew Point Pressure Wind Wind Speed Wind Gust Humidity Rainfall Rate (Hourly)
00:02 18.7 °C 12.2 °C 1021.9 hPa North 1.6 km/h   66 % 0.0 mm
00:12 18.9 °C 12.2 °C 1021.6 hPa Calm   3.2 km/h 65 % 0.0 mm
00:22 18.4 °C 11.9 °C 1021.9 hPa Calm   3.2 km/h 66 % 0.0 mm
00:32 18.0 °C 12.0 °C 1021.6 hPa Calm     68 % 0.0 mm
00:42 17.7 °C 11.9 °C 1021.6 hPa Calm     69 % 0.0 mm
00:47 17.5 °C 11.7 °C 1021.9 hPa Calm     69 % 0.0 mm
00:52 17.5 °C 12.0 °C 1021.9 hPa Calm     70 % 0.0 mm
01:02 17.4 °C 12.1 °C 1021.6 hPa Calm     71 % 0.0 mm
01:12 17.7 °C 12.2 °C 1021.6 hPa Calm     70 % 0.0 mm
01:17 17.5 °C 12.2 °C 1021.6 hPa Calm     71 % 0.0 mm
01:22 17.3 °C 12.0 °C 1021.9 hPa Calm     71 % 0.0 mm
01:27 17.2 °C 12.1 °C 1021.9 hPa Calm     72 % 0.0 mm
01:32 17.2 °C 11.9 °C 1021.9 hPa Calm     71 % 0.0 mm
01:42 17.3 °C 12.0 °C 1021.9 hPa Calm     71 % 0.0 mm
01:52 16.9 °C 11.8 °C 1021.9 hPa Calm     72 % 0.0 mm
01:57 16.8 °C 11.7 °C 1021.9 hPa Calm     72 % 0.0 mm
02:02 16.8 °C 11.9 °C 1021.9 hPa Calm     73 % 0.0 mm
02:07 16.9 °C 11.8 °C 1021.9 hPa Calm     72 % 0.0 mm
02:12 16.8 °C 11.7 °C 1021.9 hPa Calm     72 % 0.0 mm
02:17 16.8 °C 11.9 °C 1021.9 hPa Calm     73 % 0.0 mm
02:22 16.7 °C 11.8 °C 1021.9 hPa Calm     73 % 0.0 mm
02:32 16.4 °C 11.5 °C 1021.9 hPa Calm     73 % 0.0 mm
02:37 16.3 °C 11.7 °C 1021.9 hPa Calm     74 % 0.0 mm
02:42 16.2 °C 11.8 °C 1021.9 hPa Calm     75 % 0.0 mm
02:47 16.2 °C 11.8 °C 1021.9 hPa Calm     75 % 0.0 mm
02:52 16.1 °C 11.7 °C 1021.9 hPa Calm     75 % 0.0 mm
02:57 16.0 °C 11.6 °C 1021.9 hPa Calm     75 % 0.0 mm
03:02 16.0 °C 11.6 °C 1021.9 hPa NNW 3.2 km/h   75 % 0.0 mm
03:12 16.2 °C 11.6 °C 1021.9 hPa NW 4.8 km/h 9.7 km/h 74 % 0.0 mm
03:17 16.4 °C 11.5 °C 1021.9 hPa Calm   9.7 km/h 73 % 0.0 mm
03:22 16.6 °C 11.7 °C 1021.9 hPa NNW 1.6 km/h 8.0 km/h 73 % 0.0 mm
03:32 16.6 °C 11.7 °C 1021.9 hPa NW 1.6 km/h 4.8 km/h 73 % 0.0 mm
03:42 16.8 °C 11.5 °C 1021.9 hPa NNE 1.6 km/h 3.2 km/h 71 % 0.0 mm
03:47 16.5 °C 11.4 °C 1021.9 hPa North 1.6 km/h 4.8 km/h 72 % 0.0 mm
03:52 16.6 °C 11.5 °C 1021.9 hPa NW 3.2 km/h 4.8 km/h 72 % 0.0 mm
04:02 16.3 °C 11.7 °C 1021.9 hPa WNW 1.6 km/h 3.2 km/h 74 % 0.0 mm
04:12 15.9 °C 11.3 °C 1021.9 hPa WNW 3.2 km/h 3.2 km/h 74 % 0.0 mm
04:17 15.6 °C 11.4 °C 1021.9 hPa Calm   3.2 km/h 76 % 0.0 mm
04:22 15.5 °C 11.5 °C 1021.9 hPa Calm   3.2 km/h 77 % 0.0 mm
04:32 15.4 °C 11.2 °C 1021.9 hPa Calm   1.6 km/h 76 % 0.0 mm
04:37 15.3 °C 11.3 °C 1021.9 hPa WNW 1.6 km/h 1.6 km/h 77 % 0.0 mm
04:42 15.2 °C 11.4 °C 1021.9 hPa WNW 1.6 km/h 3.2 km/h 78 % 0.0 mm
04:47 15.2 °C 11.4 °C 1021.9 hPa WNW 1.6 km/h 3.2 km/h 78 % 0.0 mm
04:52 15.2 °C 11.4 °C 1021.9 hPa WNW 1.6 km/h 3.2 km/h 78 % 0.0 mm
04:57 15.2 °C 11.6 °C 1021.9 hPa Calm   3.2 km/h 79 % 0.0 mm
05:02 15.4 °C 11.6 °C 1021.9 hPa Calm   3.2 km/h 78 % 0.0 mm
05:12 15.3 °C 11.5 °C 1021.9 hPa Calm   1.6 km/h 78 % 0.0 mm
05:17 15.1 °C 11.5 °C 1022.2 hPa Calm   1.6 km/h 79 % 0.0 mm
05:22 15.1 °C 11.5 °C 1022.2 hPa Calm   1.6 km/h 79 % 0.0 mm
05:32 14.9 °C 11.3 °C 1022.2 hPa Calm     79 % 0.0 mm
05:37 14.8 °C 11.2 °C 1022.2 hPa Calm     79 % 0.0 mm
05:42 14.6 °C 11.2 °C 1022.2 hPa Calm     80 % 0.0 mm
05:47 14.5 °C 11.3 °C 1022.2 hPa Calm     81 % 0.0 mm
05:52 14.5 °C 11.3 °C 1022.2 hPa Calm     81 % 0.0 mm
05:57 14.6 °C 11.6 °C 1022.2 hPa Calm     82 % 0.0 mm
06:02 14.7 °C 11.5 °C 1022.2 hPa Calm     81 % 0.0 mm
06:07 14.7 °C 11.5 °C 1022.2 hPa Calm     81 % 0.0 mm
06:12 14.8 °C 11.6 °C 1022.2 hPa Calm     81 % 0.0 mm
06:17 15.0 °C 11.6 °C 1022.2 hPa Calm     80 % 0.0 mm
06:22 15.0 °C 11.6 °C 1022.2 hPa Calm   1.6 km/h 80 % 0.0 mm
06:27 14.8 °C 11.4 °C 1022.2 hPa Calm   1.6 km/h 80 % 0.0 mm
06:32 14.6 °C 11.4 °C 1022.2 hPa Calm   1.6 km/h 81 % 0.0 mm
06:37 14.4 °C 11.4 °C 1022.2 hPa Calm   1.6 km/h 82 % 0.0 mm
06:42 14.3 °C 11.3 °C 1022.2 hPa Calm     82 % 0.0 mm
06:47 14.3 °C 11.5 °C 1022.2 hPa Calm     83 % 0.0 mm
06:57 14.3 °C 11.5 °C 1022.2 hPa North 1.6 km/h 1.6 km/h 83 % 0.0 mm
07:02 14.4 °C 11.5 °C 1022.6 hPa Calm   1.6 km/h 83 % 0.0 mm
07:12 14.7 °C 11.7 °C 1022.6 hPa Calm   3.2 km/h 82 % 0.0 mm
07:17 14.6 °C 11.6 °C 1022.6 hPa NNW 1.6 km/h 3.2 km/h 82 % 0.0 mm
07:22 14.6 °C 11.6 °C 1022.6 hPa North 1.6 km/h 3.2 km/h 82 % 0.0 mm
07:27 14.6 °C 11.6 °C 1022.6 hPa North 3.2 km/h 3.2 km/h 82 % 0.0 mm
07:32 14.6 °C 11.6 °C 1022.6 hPa NNW 1.6 km/h 3.2 km/h 82 % 0.0 mm
07:37 14.7 °C 11.7 °C 1022.9 hPa NNW 1.6 km/h 3.2 km/h 82 % 0.0 mm
07:42 14.9 °C 11.7 °C 1022.6 hPa Calm   3.2 km/h 81 % 0.0 mm
07:47 15.0 °C 11.8 °C 1022.6 hPa Calm   3.2 km/h 81 % 0.0 mm
07:52 15.1 °C 11.7 °C 1022.9 hPa Calm   1.6 km/h 80 % 0.0 mm
08:02 15.3 °C 11.9 °C 1022.9 hPa Calm     80 % 0.0 mm
08:07 15.5 °C 12.1 °C 1022.9 hPa Calm     80 % 0.0 mm
08:12 15.7 °C 12.3 °C 1022.9 hPa Calm     80 % 0.0 mm
08:17 15.7 °C 12.1 °C 1022.9 hPa Calm     79 % 0.0 mm
08:22 15.9 °C 12.3 °C 1022.9 hPa Calm     79 % 0.0 mm
08:27 16.2 °C 12.4 °C 1022.9 hPa Calm     78 % 0.0 mm
08:32 16.5 °C 12.5 °C 1022.9 hPa Calm     77 % 0.0 mm
08:37 16.8 °C 12.5 °C 1023.2 hPa Calm     76 % 0.0 mm
08:42 17.1 °C 12.6 °C 1023.2 hPa Calm     75 % 0.0 mm
08:47 17.2 °C 12.7 °C 1023.2 hPa Calm     75 % 0.0 mm
08:52 17.7 °C 13.0 °C 1023.2 hPa Calm     74 % 0.0 mm
08:57 18.3 °C 13.2 °C 1023.2 hPa Calm     72 % 0.0 mm
09:02 18.7 °C 13.1 °C 1023.2 hPa Calm     70 % 0.0 mm
09:07 19.2 °C 12.9 °C 1023.2 hPa Calm     67 % 0.0 mm
09:12 19.2 °C 12.7 °C 1023.2 hPa Calm     66 % 0.0 mm
09:17 19.2 °C 12.9 °C 1023.2 hPa Calm     67 % 0.0 mm
09:27 19.6 °C 12.8 °C 1023.6 hPa Calm   3.2 km/h 65 % 0.0 mm
09:32 19.8 °C 13.0 °C 1023.6 hPa Calm   3.2 km/h 65 % 0.0 mm
09:37 19.9 °C 13.1 °C 1023.6 hPa Calm   3.2 km/h 65 % 0.0 mm
09:42 20.2 °C 13.2 °C 1023.6 hPa Calm   3.2 km/h 64 % 0.0 mm
09:47 20.5 °C 13.5 °C 1023.6 hPa Calm     64 % 0.0 mm
09:52 20.8 °C 13.3 °C 1023.6 hPa Calm     62 % 0.0 mm
09:57 21.2 °C 13.6 °C 1023.6 hPa East 1.6 km/h   62 % 0.0 mm
10:02 21.5 °C 13.7 °C 1023.6 hPa Calm   3.2 km/h 61 % 0.0 mm
10:07 21.5 °C 13.7 °C 1023.6 hPa Calm   3.2 km/h 61 % 0.0 mm
10:12 21.6 °C 13.8 °C 1023.6 hPa ENE 4.8 km/h 6.4 km/h 61 % 0.0 mm
10:17 21.7 °C 13.8 °C 1023.6 hPa ENE 1.6 km/h 6.4 km/h 61 % 0.0 mm
10:22 21.9 °C 14.0 °C 1023.6 hPa ENE 4.8 km/h 6.4 km/h 61 % 0.0 mm
10:27 22.2 °C 14.1 °C 1023.6 hPa ENE 3.2 km/h 6.4 km/h 60 % 0.0 mm
10:32 22.6 °C 14.4 °C 1023.6 hPa Calm   6.4 km/h 60 % 0.0 mm
10:37 23.1 °C 14.4 °C 1023.6 hPa Calm   6.4 km/h 58 % 0.0 mm
10:42 23.2 °C 14.5 °C 1023.6 hPa East 3.2 km/h 4.8 km/h 58 % 0.0 mm
10:47 23.3 °C 14.3 °C 1023.6 hPa ENE 1.6 km/h 4.8 km/h 57 % 0.0 mm
10:52 23.5 °C 14.5 °C 1023.6 hPa East 3.2 km/h 6.4 km/h 57 % 0.0 mm
10:57 23.9 °C 14.3 °C 1023.6 hPa SSW 1.6 km/h 6.4 km/h 55 % 0.0 mm
11:02 24.6 °C 14.4 °C 1023.6 hPa Calm   6.4 km/h 53 % 0.0 mm
11:12 25.1 °C 13.6 °C 1023.6 hPa Calm   3.2 km/h 49 % 0.0 mm
11:17 25.2 °C 14.3 °C 1023.6 hPa Calm   3.2 km/h 51 % 0.0 mm
11:22 25.1 °C 14.6 °C 1023.6 hPa Calm   3.2 km/h 52 % 0.0 mm
11:27 25.7 °C 14.2 °C 1023.6 hPa SSW 3.2 km/h 3.2 km/h 49 % 0.0 mm
11:32 25.8 °C 14.0 °C 1023.2 hPa South 3.2 km/h 6.4 km/h 48 % 0.0 mm
11:37 25.6 °C 13.8 °C 1023.2 hPa WSW 1.6 km/h 8.0 km/h 48 % 0.0 mm
11:42 25.7 °C 13.9 °C 1023.2 hPa West 3.2 km/h 8.0 km/h 48 % 0.0 mm
11:47 25.7 °C 13.9 °C 1023.2 hPa SE 3.2 km/h 8.0 km/h 48 % 0.0 mm
11:57 26.2 °C 14.0 °C 1023.2 hPa Calm   6.4 km/h 47 % 0.0 mm
12:02 26.4 °C 13.5 °C 1023.2 hPa Calm   6.4 km/h 45 % 0.0 mm
12:12 26.7 °C 13.1 °C 1023.2 hPa WSW 3.2 km/h 6.4 km/h 43 % 0.0 mm
12:17 26.6 °C 13.0 °C 1023.2 hPa Calm   8.0 km/h 43 % 0.0 mm
12:22 27.1 °C 13.1 °C 1023.2 hPa Calm   8.0 km/h 42 % 0.0 mm
12:27 27.2 °C 12.8 °C 1022.9 hPa West 3.2 km/h 8.0 km/h 41 % 0.0 mm
12:32 27.2 °C 12.8 °C 1022.9 hPa Calm   8.0 km/h 41 % 0.0 mm
12:37 27.6 °C 12.8 °C 1022.9 hPa Calm   9.7 km/h 40 % 0.0 mm
12:42 27.7 °C 11.7 °C 1022.9 hPa Calm   9.7 km/h 37 % 0.0 mm
12:47 28.1 °C 12.8 °C 1022.9 hPa WNW 3.2 km/h 4.8 km/h 39 % 0.0 mm
12:57 27.6 °C 12.4 °C 1022.6 hPa Calm   8.0 km/h 39 % 0.0 mm
13:02 27.9 °C 12.3 °C 1022.6 hPa Calm   8.0 km/h 38 % 0.0 mm
13:12 27.9 °C 12.3 °C 1022.6 hPa North 1.6 km/h 8.0 km/h 38 % 0.0 mm
13:17 27.8 °C 12.2 °C 1022.6 hPa NNE 4.8 km/h 8.0 km/h 38 % 0.0 mm
13:27 28.1 °C 12.4 °C 1022.6 hPa NE 6.4 km/h 11.3 km/h 38 % 0.0 mm
13:32 27.6 °C 12.4 °C 1022.6 hPa ENE 9.7 km/h 11.3 km/h 39 % 0.0 mm
13:42 28.0 °C 12.4 °C 1022.6 hPa SSW 1.6 km/h 11.3 km/h 38 % 0.0 mm
13:47 28.2 °C 12.5 °C 1022.2 hPa WSW 1.6 km/h 11.3 km/h 38 % 0.0 mm
13:52 28.4 °C 12.3 °C 1022.2 hPa ENE 8.0 km/h 8.0 km/h 37 % 0.0 mm
13:57 28.3 °C 12.6 °C 1022.2 hPa NNE 4.8 km/h 11.3 km/h 38 % 0.0 mm
14:02 28.3 °C 11.8 °C 1022.2 hPa North 14.5 km/h 14.5 km/h 36 % 0.0 mm
14:12 28.4 °C 12.3 °C 1022.2 hPa East 1.6 km/h 14.5 km/h 37 % 0.0 mm
14:17 28.1 °C 12.4 °C 1022.2 hPa NE 12.9 km/h 14.5 km/h 38 % 0.0 mm
14:22 28.2 °C 12.5 °C 1022.2 hPa NE 6.4 km/h 16.1 km/h 38 % 0.0 mm
14:27 28.3 °C 12.2 °C 1022.2 hPa NE 6.4 km/h 16.1 km/h 37 % 0.0 mm
14:32 27.9 °C 12.3 °C 1022.2 hPa ENE 3.2 km/h 16.1 km/h 38 % 0.0 mm
14:37 27.8 °C 12.2 °C 1022.2 hPa North 3.2 km/h 12.9 km/h 38 % 0.0 mm
14:42 28.1 °C 12.0 °C 1022.2 hPa North 4.8 km/h 12.9 km/h 37 % 0.0 mm
14:47 28.1 °C 12.0 °C 1022.2 hPa NE 3.2 km/h 12.9 km/h 37 % 0.0 mm
14:52 28.3 °C 12.2 °C 1021.9 hPa Calm   12.9 km/h 37 % 0.0 mm
14:57 28.4 °C 11.9 °C 1021.9 hPa WNW 8.0 km/h 12.9 km/h 36 % 0.0 mm
15:02 28.0 °C 12.0 °C 1021.9 hPa West 1.6 km/h 8.0 km/h 37 % 0.0 mm
15:07 28.1 °C 12.0 °C 1021.9 hPa ENE 8.0 km/h 8.0 km/h 37 % 0.0 mm
15:12 28.4 °C 11.9 °C 1021.9 hPa NNE 3.2 km/h 12.9 km/h 36 % 0.0 mm
15:17 28.3 °C 11.8 °C 1021.9 hPa Calm   16.1 km/h 36 % 0.0 mm
15:22 28.7 °C 12.2 °C 1021.9 hPa NW 9.7 km/h 16.1 km/h 36 % 0.0 mm
15:32 28.7 °C 13.0 °C 1021.9 hPa NE 16.1 km/h 19.3 km/h 38 % 0.0 mm
15:37 28.4 °C 12.7 °C 1021.9 hPa NNE 3.2 km/h 20.9 km/h 38 % 0.0 mm
15:42 28.6 °C 12.5 °C 1021.9 hPa NNW 4.8 km/h 20.9 km/h 37 % 0.0 mm
15:47 28.6 °C 12.5 °C 1021.6 hPa NE 22.5 km/h 22.5 km/h 37 % 0.0 mm
15:52 28.3 °C 12.6 °C 1021.6 hPa North 8.0 km/h 29.0 km/h 38 % 0.0 mm
15:57 28.1 °C 12.4 °C 1021.6 hPa NE 16.1 km/h 29.0 km/h 38 % 0.0 mm
16:02 28.0 °C 12.4 °C 1021.9 hPa NE 11.3 km/h 24.1 km/h 38 % 0.0 mm
16:12 28.3 °C 12.6 °C 1021.6 hPa NW 9.7 km/h 19.3 km/h 38 % 0.0 mm
16:17 28.3 °C 13.0 °C 1021.6 hPa NNE 22.5 km/h 22.5 km/h 39 % 0.0 mm
16:22 28.3 °C 12.6 °C 1021.6 hPa ENE 8.0 km/h 27.4 km/h 38 % 0.0 mm
16:27 28.5 °C 12.8 °C 1021.6 hPa NNW 6.4 km/h 27.4 km/h 38 % 0.0 mm
16:32 28.2 °C 12.5 °C 1021.6 hPa Calm   27.4 km/h 38 % 0.0 mm
16:42 28.2 °C 12.5 °C 1021.6 hPa ENE 4.8 km/h 12.9 km/h 38 % 0.0 mm
16:52 28.2 °C 12.5 °C 1021.6 hPa NNE 8.0 km/h 14.5 km/h 38 % 0.0 mm
16:57 28.1 °C 12.4 °C 1021.6 hPa NE 6.4 km/h 17.7 km/h 38 % 0.0 mm
17:02 28.2 °C 12.5 °C 1021.6 hPa NE 4.8 km/h 17.7 km/h 38 % 0.0 mm
17:07 28.0 °C 12.4 °C 1021.6 hPa ENE 1.6 km/h 17.7 km/h 38 % 0.0 mm
17:12 27.9 °C 12.7 °C 1021.6 hPa NE 4.8 km/h 17.7 km/h 39 % 0.0 mm
17:17 27.8 °C 12.6 °C 1021.6 hPa NE 6.4 km/h 14.5 km/h 39 % 0.0 mm
17:22 27.8 °C 12.2 °C 1021.6 hPa NE 3.2 km/h 12.9 km/h 38 % 0.0 mm
17:27 27.7 °C 12.5 °C 1021.6 hPa North 6.4 km/h 14.5 km/h 39 % 0.0 mm
17:32 27.7 °C 12.1 °C 1021.6 hPa ENE 12.9 km/h 14.5 km/h 38 % 0.0 mm
17:37 27.6 °C 12.4 °C 1021.6 hPa NNE 3.2 km/h 17.7 km/h 39 % 0.0 mm
17:42 27.6 °C 12.0 °C 1021.6 hPa NNE 6.4 km/h 17.7 km/h 38 % 0.0 mm
17:47 27.6 °C 12.0 °C 1021.2 hPa ENE 4.8 km/h 17.7 km/h 38 % 0.0 mm
17:52 27.6 °C 12.0 °C 1021.2 hPa NNE 1.6 km/h 12.9 km/h 38 % 0.0 mm
17:57 27.7 °C 12.1 °C 1021.2 hPa NNE 8.0 km/h 9.7 km/h 38 % 0.0 mm
18:02 27.8 °C 12.6 °C 1021.2 hPa NE 9.7 km/h 12.9 km/h 39 % 0.0 mm
18:12 27.8 °C 12.2 °C 1021.2 hPa NE 1.6 km/h 14.5 km/h 38 % 0.0 mm
18:17 27.7 °C 12.5 °C 1021.2 hPa NNE 9.7 km/h 14.5 km/h 39 % 0.0 mm
18:22 27.6 °C 12.4 °C 1021.2 hPa NE 11.3 km/h 14.5 km/h 39 % 0.0 mm
18:32 27.4 °C 12.2 °C 1021.2 hPa NE 3.2 km/h 14.5 km/h 39 % 0.0 mm
18:37 27.3 °C 12.1 °C 1021.2 hPa North 11.3 km/h 14.5 km/h 39 % 0.0 mm
18:42 27.3 °C 12.1 °C 1021.2 hPa NNE 8.0 km/h 16.1 km/h 39 % 0.0 mm
18:47 27.5 °C 12.3 °C 1021.2 hPa NE 11.3 km/h 16.1 km/h 39 % 0.0 mm
18:52 27.6 °C 12.4 °C 1021.2 hPa North 6.4 km/h 16.1 km/h 39 % 0.0 mm
18:57 27.6 °C 12.4 °C 1021.2 hPa NE 6.4 km/h 16.1 km/h 39 % 0.0 mm
19:02 27.6 °C 12.0 °C 1021.2 hPa NE 11.3 km/h 16.1 km/h 38 % 0.0 mm
19:12 27.5 °C 12.3 °C 1021.2 hPa NNW 8.0 km/h 16.1 km/h 39 % 0.0 mm
19:17 27.4 °C 12.6 °C 1021.2 hPa NE 3.2 km/h 16.1 km/h 40 % 0.0 mm
19:22 27.4 °C 12.2 °C 1021.2 hPa NNE 6.4 km/h 17.7 km/h 39 % 0.0 mm
19:32 27.2 °C 12.4 °C 1020.9 hPa ENE 6.4 km/h 14.5 km/h 40 % 0.0 mm
19:37 27.1 °C 12.3 °C 1021.2 hPa NE 6.4 km/h 14.5 km/h 40 % 0.0 mm
19:42 26.9 °C 12.2 °C 1021.2 hPa NNE 4.8 km/h 14.5 km/h 40 % 0.0 mm
19:52 26.7 °C 12.7 °C 1021.2 hPa NNE 4.8 km/h 14.5 km/h 42 % 0.0 mm
19:57 26.5 °C 12.5 °C 1021.2 hPa ENE 3.2 km/h 14.5 km/h 42 % 0.0 mm
20:02 26.2 °C 12.3 °C 1021.2 hPa ENE 4.8 km/h 11.3 km/h 42 % 0.0 mm
20:12 25.8 °C 12.3 °C 1021.2 hPa North 6.4 km/h 11.3 km/h 43 % 0.0 mm
20:17 25.5 °C 12.4 °C 1021.2 hPa NNW 3.2 km/h 9.7 km/h 44 % 0.0 mm
20:22 25.3 °C 12.5 °C 1021.2 hPa NNE 4.8 km/h 9.7 km/h 45 % 0.0 mm
20:32 24.8 °C 12.4 °C 1021.6 hPa NNE 4.8 km/h 8.0 km/h 46 % 0.0 mm
20:37 24.6 °C 12.5 °C 1021.6 hPa NE 6.4 km/h 8.0 km/h 47 % 0.0 mm
20:42 24.6 °C 12.5 °C 1021.6 hPa NE 3.2 km/h 9.7 km/h 47 % 0.0 mm
20:47 24.3 °C 12.6 °C 1021.2 hPa NNE 3.2 km/h 9.7 km/h 48 % 0.0 mm
20:52 23.9 °C 12.5 °C 1021.6 hPa Calm   9.7 km/h 49 % 0.0 mm
20:57 23.7 °C 12.7 °C 1021.6 hPa Calm   8.0 km/h 50 % 0.0 mm
21:02 23.4 °C 12.4 °C 1021.6 hPa Calm   6.4 km/h 50 % 0.0 mm
21:07 23.2 °C 12.5 °C 1021.6 hPa Calm   3.2 km/h 51 % 0.0 mm
21:12 23.1 °C 12.7 °C 1021.6 hPa NE 4.8 km/h   52 % 0.0 mm
21:17 22.8 °C 12.4 °C 1021.6 hPa Calm   4.8 km/h 52 % 0.0 mm
21:22 22.6 °C 12.5 °C 1021.6 hPa Calm   4.8 km/h 53 % 0.0 mm
21:32 22.3 °C 12.3 °C 1021.6 hPa Calm   3.2 km/h 53 % 0.0 mm
21:37 22.3 °C 12.3 °C 1021.6 hPa NNW 1.6 km/h   53 % 0.0 mm
21:42 22.3 °C 12.3 °C 1021.6 hPa NNW 1.6 km/h 4.8 km/h 53 % 0.0 mm
21:47 22.2 °C 12.2 °C 1021.6 hPa NNW 1.6 km/h 4.8 km/h 53 % 0.0 mm
21:57 21.9 °C 12.2 °C 1021.6 hPa North 1.6 km/h 4.8 km/h 54 % 0.0 mm
22:02 21.7 °C 12.3 °C 1021.9 hPa North 1.6 km/h 3.2 km/h 55 % 0.0 mm
22:12 21.3 °C 12.4 °C 1021.9 hPa NW 1.6 km/h 4.8 km/h 57 % 0.0 mm
22:17 21.2 °C 12.3 °C 1021.9 hPa NW 1.6 km/h 4.8 km/h 57 % 0.0 mm
22:22 21.2 °C 12.3 °C 1021.9 hPa NW 3.2 km/h 4.8 km/h 57 % 0.0 mm
22:27 21.2 °C 12.3 °C 1021.9 hPa NNW 3.2 km/h 4.8 km/h 57 % 0.0 mm
22:32 21.3 °C 12.4 °C 1021.9 hPa NNW 1.6 km/h 4.8 km/h 57 % 0.0 mm
22:37 21.2 °C 12.3 °C 1021.9 hPa NNW 1.6 km/h 4.8 km/h 57 % 0.0 mm
22:42 21.2 °C 12.3 °C 1021.9 hPa Calm   3.2 km/h 57 % 0.0 mm
22:47 21.1 °C 12.5 °C 1021.9 hPa Calm   3.2 km/h 58 % 0.0 mm
22:52 20.8 °C 12.2 °C 1021.9 hPa Calm   3.2 km/h 58 % 0.0 mm
22:57 20.6 °C 12.6 °C 1021.9 hPa Calm     60 % 0.0 mm
23:02 20.4 °C 12.4 °C 1021.9 hPa Calm     60 % 0.0 mm
23:12 20.3 °C 12.5 °C 1021.9 hPa Calm     61 % 0.0 mm
23:17 20.1 °C 12.3 °C 1021.9 hPa Calm     61 % 0.0 mm
23:22 19.6 °C 12.1 °C 1021.9 hPa Calm     62 % 0.0 mm
23:32 19.5 °C 12.3 °C 1021.9 hPa Calm     63 % 0.0 mm
23:42 19.4 °C 12.4 °C 1021.9 hPa NNE 1.6 km/h 3.2 km/h 64 % 0.0 mm
23:47 19.4 °C 12.4 °C 1021.9 hPa Calm   3.2 km/h 64 % 0.0 mm
23:52 19.7 °C 12.5 °C 1021.9 hPa North 1.6 km/h 3.2 km/h 63 % 0.0 mm
23:57 19.8 °C 12.6 °C 1021.9 hPa NNW 1.6 km/h 3.2 km/h 63 % 0.0 mm
Meteo18
Compliments of Weather Underground - 4 mb

Script developed by  Jim McMurry - jmcmurry@mwt.net Adapted for the template by  Wim van der Kuil - Leuven-Template.eu

You find our weather info also at:

European Weather Network

Weather Underground

Equipment we use:

Weather-station
Davis Vue

Weather-program
Meteohub

Weather-server
Raspberry PI 2 B+

Provider
1 and 1

Davis Vue

Meteohub

Raspberry PI 2 B+

1 and 1